sensor_id;sensor_type;location;lat;lon;timestamp;temperature;humidity
41592;DHT22;28026;48.562;14.440;2023-05-16T00:01:43;8.30;99.90
41592;DHT22;28026;48.562;14.440;2023-05-16T00:04:14;8.30;99.90
41592;DHT22;28026;48.562;14.440;2023-05-16T00:06:45;8.40;99.90
41592;DHT22;28026;48.562;14.440;2023-05-16T00:09:16;8.30;99.90
41592;DHT22;28026;48.562;14.440;2023-05-16T00:11:47;8.30;99.90
41592;DHT22;28026;48.562;14.440;2023-05-16T00:14:18;8.30;99.90
41592;DHT22;28026;48.562;14.440;2023-05-16T00:16:49;8.30;99.90
41592;DHT22;28026;48.562;14.440;2023-05-16T00:19:19;8.30;99.90
41592;DHT22;28026;48.562;14.440;2023-05-16T00:21:50;8.40;99.90
41592;DHT22;28026;48.562;14.440;2023-05-16T00:24:22;8.30;99.90
41592;DHT22;28026;48.562;14.440;2023-05-16T00:26:52;8.30;99.90
41592;DHT22;28026;48.562;14.440;2023-05-16T00:29:23;8.30;99.90
41592;DHT22;28026;48.562;14.440;2023-05-16T00:31:54;8.40;99.90
41592;DHT22;28026;48.562;14.440;2023-05-16T00:34:25;8.30;99.90
41592;DHT22;28026;48.562;14.440;2023-05-16T00:36:56;8.40;99.90
41592;DHT22;28026;48.562;14.440;2023-05-16T00:39:26;8.40;99.90
41592;DHT22;28026;48.562;14.440;2023-05-16T00:41:58;8.40;99.90
41592;DHT22;28026;48.562;14.440;2023-05-16T00:44:28;8.40;99.90
41592;DHT22;28026;48.562;14.440;2023-05-16T00:47:00;8.40;99.90
41592;DHT22;28026;48.562;14.440;2023-05-16T00:49:32;8.40;99.90
41592;DHT22;28026;48.562;14.440;2023-05-16T00:52:03;8.40;99.90
41592;DHT22;28026;48.562;14.440;2023-05-16T00:54:34;8.30;99.90
41592;DHT22;28026;48.562;14.440;2023-05-16T00:57:06;8.40;99.90
41592;DHT22;28026;48.562;14.440;2023-05-16T00:59:37;8.30;99.90
41592;DHT22;28026;48.562;14.440;2023-05-16T01:02:09;8.30;99.90
41592;DHT22;28026;48.562;14.440;2023-05-16T01:04:40;8.30;99.90
41592;DHT22;28026;48.562;14.440;2023-05-16T01:07:13;8.30;99.90
41592;DHT22;28026;48.562;14.440;2023-05-16T01:09:44;8.30;99.90
41592;DHT22;28026;48.562;14.440;2023-05-16T01:15:29;8.20;99.90
41592;DHT22;28026;48.562;14.440;2023-05-16T01:18:24;8.10;99.90
41592;DHT22;28026;48.562;14.440;2023-05-16T01:21:15;8.10;99.90
41592;DHT22;28026;48.562;14.440;2023-05-16T01:27:33;8.10;99.90
41592;DHT22;28026;48.562;14.440;2023-05-16T01:30:14;8.20;99.90
41592;DHT22;28026;48.562;14.440;2023-05-16T01:32:48;8.20;99.90
41592;DHT22;28026;48.562;14.440;2023-05-16T01:35:18;8.20;99.90
41592;DHT22;28026;48.562;14.440;2023-05-16T01:37:58;8.20;99.90
41592;DHT22;28026;48.562;14.440;2023-05-16T01:43:54;8.10;99.90
41592;DHT22;28026;48.562;14.440;2023-05-16T01:46:37;8.00;99.90
41592;DHT22;28026;48.562;14.440;2023-05-16T01:49:33;8.30;99.90
41592;DHT22;28026;48.562;14.440;2023-05-16T01:52:24;7.90;99.90
41592;DHT22;28026;48.562;14.440;2023-05-16T01:55:00;8.00;99.90
41592;DHT22;28026;48.562;14.440;2023-05-16T01:57:33;8.00;99.90
41592;DHT22;28026;48.562;14.440;2023-05-16T02:00:06;7.90;99.90
41592;DHT22;28026;48.562;14.440;2023-05-16T02:02:38;7.90;99.90
41592;DHT22;28026;48.562;14.440;2023-05-16T02:05:08;8.00;99.90
41592;DHT22;28026;48.562;14.440;2023-05-16T02:07:39;7.90;99.90
41592;DHT22;28026;48.562;14.440;2023-05-16T02:10:11;8.00;99.90
41592;DHT22;28026;48.562;14.440;2023-05-16T02:12:43;8.00;99.90
41592;DHT22;28026;48.562;14.440;2023-05-16T02:15:13;8.10;99.90
41592;DHT22;28026;48.562;14.440;2023-05-16T02:17:44;8.00;99.90
41592;DHT22;28026;48.562;14.440;2023-05-16T02:20:16;8.00;99.90
41592;DHT22;28026;48.562;14.440;2023-05-16T02:22:47;8.00;99.90
41592;DHT22;28026;48.562;14.440;2023-05-16T02:25:19;8.00;99.90
41592;DHT22;28026;48.562;14.440;2023-05-16T02:27:50;7.90;99.90
41592;DHT22;28026;48.562;14.440;2023-05-16T02:30:20;8.00;99.90
41592;DHT22;28026;48.562;14.440;2023-05-16T02:32:51;8.00;99.90
41592;DHT22;28026;48.562;14.440;2023-05-16T02:35:23;8.00;99.90
41592;DHT22;28026;48.562;14.440;2023-05-16T02:37:54;8.10;99.90
41592;DHT22;28026;48.562;14.440;2023-05-16T02:40:26;8.10;99.90
41592;DHT22;28026;48.562;14.440;2023-05-16T02:42:57;8.10;99.90
41592;DHT22;28026;48.562;14.440;2023-05-16T02:45:27;8.10;99.90
41592;DHT22;28026;48.562;14.440;2023-05-16T02:47:58;8.00;99.90
41592;DHT22;28026;48.562;14.440;2023-05-16T02:50:29;8.00;99.90
41592;DHT22;28026;48.562;14.440;2023-05-16T02:53:00;8.00;99.90
41592;DHT22;28026;48.562;14.440;2023-05-16T02:55:31;8.00;99.90
41592;DHT22;28026;48.562;14.440;2023-05-16T02:58:02;8.00;99.90
41592;DHT22;28026;48.562;14.440;2023-05-16T03:00:33;8.00;99.90
41592;DHT22;28026;48.562;14.440;2023-05-16T03:03:04;8.00;99.90
41592;DHT22;28026;48.562;14.440;2023-05-16T03:05:34;8.00;99.90
41592;DHT22;28026;48.562;14.440;2023-05-16T03:08:05;8.00;99.90
41592;DHT22;28026;48.562;14.440;2023-05-16T03:10:36;8.00;99.90
41592;DHT22;28026;48.562;14.440;2023-05-16T03:13:07;8.00;99.90
41592;DHT22;28026;48.562;14.440;2023-05-16T03:15:37;8.10;99.90
41592;DHT22;28026;48.562;14.440;2023-05-16T03:18:08;8.00;99.90
41592;DHT22;28026;48.562;14.440;2023-05-16T03:20:39;8.00;99.90
41592;DHT22;28026;48.562;14.440;2023-05-16T03:23:10;8.10;99.90
41592;DHT22;28026;48.562;14.440;2023-05-16T03:25:40;8.10;99.90
41592;DHT22;28026;48.562;14.440;2023-05-16T03:28:12;8.10;99.90
41592;DHT22;28026;48.562;14.440;2023-05-16T03:30:43;8.10;99.90
41592;DHT22;28026;48.562;14.440;2023-05-16T03:33:14;8.00;99.90
41592;DHT22;28026;48.562;14.440;2023-05-16T03:35:45;8.10;99.90
41592;DHT22;28026;48.562;14.440;2023-05-16T03:38:16;8.10;99.90
41592;DHT22;28026;48.562;14.440;2023-05-16T03:40:47;8.10;99.90
41592;DHT22;28026;48.562;14.440;2023-05-16T03:43:18;8.00;99.90
41592;DHT22;28026;48.562;14.440;2023-05-16T03:45:49;8.10;99.90
41592;DHT22;28026;48.562;14.440;2023-05-16T03:48:20;8.10;99.90
41592;DHT22;28026;48.562;14.440;2023-05-16T03:50:51;8.00;99.90
41592;DHT22;28026;48.562;14.440;2023-05-16T03:53:22;8.00;99.90
41592;DHT22;28026;48.562;14.440;2023-05-16T03:55:52;8.00;99.90
41592;DHT22;28026;48.562;14.440;2023-05-16T03:58:23;8.00;99.90
41592;DHT22;28026;48.562;14.440;2023-05-16T04:00:54;8.10;99.90
41592;DHT22;28026;48.562;14.440;2023-05-16T04:03:25;8.10;99.90
41592;DHT22;28026;48.562;14.440;2023-05-16T04:05:58;8.10;99.90
41592;DHT22;28026;48.562;14.440;2023-05-16T04:08:29;8.10;99.90
41592;DHT22;28026;48.562;14.440;2023-05-16T04:11:01;8.10;99.90
41592;DHT22;28026;48.562;14.440;2023-05-16T04:13:31;8.20;99.90
41592;DHT22;28026;48.562;14.440;2023-05-16T04:16:02;8.20;99.90
41592;DHT22;28026;48.562;14.440;2023-05-16T04:18:33;8.20;99.90
41592;DHT22;28026;48.562;14.440;2023-05-16T04:21:04;8.30;99.90
41592;DHT22;28026;48.562;14.440;2023-05-16T04:23:35;8.30;99.90
41592;DHT22;28026;48.562;14.440;2023-05-16T04:26:06;8.40;99.90
41592;DHT22;28026;48.562;14.440;2023-05-16T04:28:37;8.30;99.90
41592;DHT22;28026;48.562;14.440;2023-05-16T04:31:07;8.40;99.90
41592;DHT22;28026;48.562;14.440;2023-05-16T04:33:38;8.40;99.90
41592;DHT22;28026;48.562;14.440;2023-05-16T04:36:09;8.30;99.90
41592;DHT22;28026;48.562;14.440;2023-05-16T04:38:40;8.30;99.90
41592;DHT22;28026;48.562;14.440;2023-05-16T04:41:12;8.40;99.90
41592;DHT22;28026;48.562;14.440;2023-05-16T04:43:43;8.50;99.90
41592;DHT22;28026;48.562;14.440;2023-05-16T04:46:14;8.70;99.90
41592;DHT22;28026;48.562;14.440;2023-05-16T04:48:45;8.80;99.90
41592;DHT22;28026;48.562;14.440;2023-05-16T04:51:16;8.80;99.90
41592;DHT22;28026;48.562;14.440;2023-05-16T04:53:47;8.90;99.90
41592;DHT22;28026;48.562;14.440;2023-05-16T04:56:18;9.00;99.90
41592;DHT22;28026;48.562;14.440;2023-05-16T04:58:49;9.10;99.90
41592;DHT22;28026;48.562;14.440;2023-05-16T05:01:20;9.10;99.90
41592;DHT22;28026;48.562;14.440;2023-05-16T05:03:51;9.00;99.90
41592;DHT22;28026;48.562;14.440;2023-05-16T05:06:22;9.00;99.90
41592;DHT22;28026;48.562;14.440;2023-05-16T05:08:52;8.80;99.90
41592;DHT22;28026;48.562;14.440;2023-05-16T05:11:24;8.90;99.90
41592;DHT22;28026;48.562;14.440;2023-05-16T05:13:56;8.90;99.90
41592;DHT22;28026;48.562;14.440;2023-05-16T05:16:27;9.10;99.90
41592;DHT22;28026;48.562;14.440;2023-05-16T05:18:58;9.30;99.90
41592;DHT22;28026;48.562;14.440;2023-05-16T05:21:28;9.50;99.90
41592;DHT22;28026;48.562;14.440;2023-05-16T05:24:00;9.50;99.90
41592;DHT22;28026;48.562;14.440;2023-05-16T05:26:30;9.60;99.90
41592;DHT22;28026;48.562;14.440;2023-05-16T05:29:01;9.80;99.90
41592;DHT22;28026;48.562;14.440;2023-05-16T05:31:32;9.80;99.90
41592;DHT22;28026;48.562;14.440;2023-05-16T05:34:03;10.10;99.90
41592;DHT22;28026;48.562;14.440;2023-05-16T05:36:34;10.40;99.90
41592;DHT22;28026;48.562;14.440;2023-05-16T05:39:05;10.60;99.90
41592;DHT22;28026;48.562;14.440;2023-05-16T05:41:36;10.90;99.90
41592;DHT22;28026;48.562;14.440;2023-05-16T05:44:07;11.20;99.90
41592;DHT22;28026;48.562;14.440;2023-05-16T05:46:38;11.50;99.90
41592;DHT22;28026;48.562;14.440;2023-05-16T05:49:09;11.80;99.90
41592;DHT22;28026;48.562;14.440;2023-05-16T05:51:40;11.90;99.90
41592;DHT22;28026;48.562;14.440;2023-05-16T05:54:11;12.00;99.90
41592;DHT22;28026;48.562;14.440;2023-05-16T05:56:42;11.90;99.90
41592;DHT22;28026;48.562;14.440;2023-05-16T05:59:13;11.90;99.90
41592;DHT22;28026;48.562;14.440;2023-05-16T06:01:44;12.10;99.90
41592;DHT22;28026;48.562;14.440;2023-05-16T06:04:15;12.00;99.90
41592;DHT22;28026;48.562;14.440;2023-05-16T06:06:46;12.10;99.90
41592;DHT22;28026;48.562;14.440;2023-05-16T06:09:17;11.80;99.90
41592;DHT22;28026;48.562;14.440;2023-05-16T06:11:48;12.00;99.90
41592;DHT22;28026;48.562;14.440;2023-05-16T06:14:19;11.70;99.90
41592;DHT22;28026;48.562;14.440;2023-05-16T06:16:50;11.90;99.90
41592;DHT22;28026;48.562;14.440;2023-05-16T06:19:21;12.10;99.90
41592;DHT22;28026;48.562;14.440;2023-05-16T06:21:52;12.10;99.90
41592;DHT22;28026;48.562;14.440;2023-05-16T06:24:23;12.10;99.90
41592;DHT22;28026;48.562;14.440;2023-05-16T06:26:53;12.40;99.90
41592;DHT22;28026;48.562;14.440;2023-05-16T06:29:24;12.60;99.90
41592;DHT22;28026;48.562;14.440;2023-05-16T06:31:55;12.70;99.90
41592;DHT22;28026;48.562;14.440;2023-05-16T06:34:26;12.90;99.90
41592;DHT22;28026;48.562;14.440;2023-05-16T06:36:57;13.00;99.90
41592;DHT22;28026;48.562;14.440;2023-05-16T06:39:29;13.00;99.90
41592;DHT22;28026;48.562;14.440;2023-05-16T06:41:59;13.00;99.90
41592;DHT22;28026;48.562;14.440;2023-05-16T06:44:30;13.10;99.90
41592;DHT22;28026;48.562;14.440;2023-05-16T06:47:01;13.20;99.90
41592;DHT22;28026;48.562;14.440;2023-05-16T06:49:32;13.10;99.90
41592;DHT22;28026;48.562;14.440;2023-05-16T06:52:03;13.00;99.90
41592;DHT22;28026;48.562;14.440;2023-05-16T06:54:34;13.10;99.90
41592;DHT22;28026;48.562;14.440;2023-05-16T06:57:05;13.10;99.90
41592;DHT22;28026;48.562;14.440;2023-05-16T06:59:38;13.10;99.90
41592;DHT22;28026;48.562;14.440;2023-05-16T07:02:09;13.00;99.90
41592;DHT22;28026;48.562;14.440;2023-05-16T07:04:40;13.10;99.90
41592;DHT22;28026;48.562;14.440;2023-05-16T07:07:11;13.00;99.90
41592;DHT22;28026;48.562;14.440;2023-05-16T07:09:42;12.90;99.90
41592;DHT22;28026;48.562;14.440;2023-05-16T07:12:13;13.10;99.90
41592;DHT22;28026;48.562;14.440;2023-05-16T07:14:44;13.30;99.90
41592;DHT22;28026;48.562;14.440;2023-05-16T07:17:16;13.60;99.90
41592;DHT22;28026;48.562;14.440;2023-05-16T07:19:46;13.90;99.90
41592;DHT22;28026;48.562;14.440;2023-05-16T07:22:17;14.00;99.90
41592;DHT22;28026;48.562;14.440;2023-05-16T07:24:48;14.30;99.90
41592;DHT22;28026;48.562;14.440;2023-05-16T07:27:19;14.40;99.90
41592;DHT22;28026;48.562;14.440;2023-05-16T07:29:49;14.60;99.90
41592;DHT22;28026;48.562;14.440;2023-05-16T07:32:20;14.90;99.90
41592;DHT22;28026;48.562;14.440;2023-05-16T07:34:51;15.00;99.90
41592;DHT22;28026;48.562;14.440;2023-05-16T07:37:22;15.30;99.90
41592;DHT22;28026;48.562;14.440;2023-05-16T07:39:53;15.30;99.90
41592;DHT22;28026;48.562;14.440;2023-05-16T07:42:24;15.30;99.90
41592;DHT22;28026;48.562;14.440;2023-05-16T07:44:54;15.40;99.90
41592;DHT22;28026;48.562;14.440;2023-05-16T07:47:26;15.40;99.90
41592;DHT22;28026;48.562;14.440;2023-05-16T07:49:57;15.40;99.90
41592;DHT22;28026;48.562;14.440;2023-05-16T07:52:28;15.40;99.90
41592;DHT22;28026;48.562;14.440;2023-05-16T07:54:59;15.20;99.90
41592;DHT22;28026;48.562;14.440;2023-05-16T07:57:30;15.20;99.90
41592;DHT22;28026;48.562;14.440;2023-05-16T08:00:00;15.30;99.90
41592;DHT22;28026;48.562;14.440;2023-05-16T08:02:33;15.10;99.90
41592;DHT22;28026;48.562;14.440;2023-05-16T08:05:04;15.10;99.90
41592;DHT22;28026;48.562;14.440;2023-05-16T08:07:36;15.20;99.90
41592;DHT22;28026;48.562;14.440;2023-05-16T08:10:07;14.90;99.90
41592;DHT22;28026;48.562;14.440;2023-05-16T08:12:38;14.80;99.90
41592;DHT22;28026;48.562;14.440;2023-05-16T08:15:09;14.90;99.90
41592;DHT22;28026;48.562;14.440;2023-05-16T08:17:40;14.90;99.90
41592;DHT22;28026;48.562;14.440;2023-05-16T08:20:11;14.80;99.90
41592;DHT22;28026;48.562;14.440;2023-05-16T08:22:42;14.70;99.90
41592;DHT22;28026;48.562;14.440;2023-05-16T08:25:13;14.50;99.90
41592;DHT22;28026;48.562;14.440;2023-05-16T08:27:44;14.30;99.90
41592;DHT22;28026;48.562;14.440;2023-05-16T08:30:16;14.20;99.90
41592;DHT22;28026;48.562;14.440;2023-05-16T08:32:47;14.20;99.90
41592;DHT22;28026;48.562;14.440;2023-05-16T08:35:18;14.20;99.90
41592;DHT22;28026;48.562;14.440;2023-05-16T08:37:48;14.20;99.90
41592;DHT22;28026;48.562;14.440;2023-05-16T08:40:19;14.30;99.90
41592;DHT22;28026;48.562;14.440;2023-05-16T08:42:54;14.40;99.90
41592;DHT22;28026;48.562;14.440;2023-05-16T08:45:25;14.50;99.90
41592;DHT22;28026;48.562;14.440;2023-05-16T08:47:56;14.60;99.90
41592;DHT22;28026;48.562;14.440;2023-05-16T08:50:31;14.70;99.90
41592;DHT22;28026;48.562;14.440;2023-05-16T08:53:03;14.70;99.90
41592;DHT22;28026;48.562;14.440;2023-05-16T08:55:37;14.50;99.90
41592;DHT22;28026;48.562;14.440;2023-05-16T08:58:11;14.50;99.90
41592;DHT22;28026;48.562;14.440;2023-05-16T09:00:42;14.40;99.90
41592;DHT22;28026;48.562;14.440;2023-05-16T09:03:14;14.40;99.90
41592;DHT22;28026;48.562;14.440;2023-05-16T09:05:46;14.40;99.90
41592;DHT22;28026;48.562;14.440;2023-05-16T09:08:17;14.50;99.90
41592;DHT22;28026;48.562;14.440;2023-05-16T09:10:49;14.40;99.90
41592;DHT22;28026;48.562;14.440;2023-05-16T09:13:20;14.30;99.90
41592;DHT22;28026;48.562;14.440;2023-05-16T09:18:55;14.00;99.90
41592;DHT22;28026;48.562;14.440;2023-05-16T09:21:31;14.00;99.90
41592;DHT22;28026;48.562;14.440;2023-05-16T09:24:05;14.00;99.90
41592;DHT22;28026;48.562;14.440;2023-05-16T09:26:38;13.90;99.90
41592;DHT22;28026;48.562;14.440;2023-05-16T09:29:12;13.90;99.90
41592;DHT22;28026;48.562;14.440;2023-05-16T09:31:43;13.90;99.90
41592;DHT22;28026;48.562;14.440;2023-05-16T09:34:14;14.00;99.90
41592;DHT22;28026;48.562;14.440;2023-05-16T09:36:45;14.00;99.90
41592;DHT22;28026;48.562;14.440;2023-05-16T09:39:16;14.00;99.90
41592;DHT22;28026;48.562;14.440;2023-05-16T09:41:50;14.00;99.90
41592;DHT22;28026;48.562;14.440;2023-05-16T09:44:21;14.00;99.90
41592;DHT22;28026;48.562;14.440;2023-05-16T09:46:53;14.00;99.90
41592;DHT22;28026;48.562;14.440;2023-05-16T09:49:24;14.30;99.90
41592;DHT22;28026;48.562;14.440;2023-05-16T09:51:57;14.40;99.90
41592;DHT22;28026;48.562;14.440;2023-05-16T09:54:34;14.40;99.90
41592;DHT22;28026;48.562;14.440;2023-05-16T09:57:05;14.50;99.90
41592;DHT22;28026;48.562;14.440;2023-05-16T09:59:39;14.70;99.90
41592;DHT22;28026;48.562;14.440;2023-05-16T10:02:10;14.80;99.90
41592;DHT22;28026;48.562;14.440;2023-05-16T10:04:43;15.10;99.90
41592;DHT22;28026;48.562;14.440;2023-05-16T10:07:14;15.10;99.90
41592;DHT22;28026;48.562;14.440;2023-05-16T10:09:45;15.10;99.90
41592;DHT22;28026;48.562;14.440;2023-05-16T10:12:19;15.00;99.90
41592;DHT22;28026;48.562;14.440;2023-05-16T10:15:03;14.90;99.90
41592;DHT22;28026;48.562;14.440;2023-05-16T10:17:38;15.20;99.90
41592;DHT22;28026;48.562;14.440;2023-05-16T10:20:12;15.20;99.90
41592;DHT22;28026;48.562;14.440;2023-05-16T10:22:43;14.70;99.90
41592;DHT22;28026;48.562;14.440;2023-05-16T10:25:19;14.70;99.90
41592;DHT22;28026;48.562;14.440;2023-05-16T10:27:59;14.60;99.90
41592;DHT22;28026;48.562;14.440;2023-05-16T10:30:34;14.40;99.90
41592;DHT22;28026;48.562;14.440;2023-05-16T10:33:12;14.30;99.90
41592;DHT22;28026;48.562;14.440;2023-05-16T10:35:46;14.20;99.90
41592;DHT22;28026;48.562;14.440;2023-05-16T10:38:17;14.30;99.90
41592;DHT22;28026;48.562;14.440;2023-05-16T10:40:50;14.30;99.90
41592;DHT22;28026;48.562;14.440;2023-05-16T10:43:23;14.30;99.90
41592;DHT22;28026;48.562;14.440;2023-05-16T10:46:03;14.10;99.90
41592;DHT22;28026;48.562;14.440;2023-05-16T10:48:39;14.00;99.90
41592;DHT22;28026;48.562;14.440;2023-05-16T10:54:09;13.70;99.90
41592;DHT22;28026;48.562;14.440;2023-05-16T10:56:44;13.70;99.90
41592;DHT22;28026;48.562;14.440;2023-05-16T10:59:26;13.70;99.90
41592;DHT22;28026;48.562;14.440;2023-05-16T11:01:57;13.70;99.90
41592;DHT22;28026;48.562;14.440;2023-05-16T11:04:44;13.80;99.90
41592;DHT22;28026;48.562;14.440;2023-05-16T11:07:18;13.70;99.90
41592;DHT22;28026;48.562;14.440;2023-05-16T11:09:52;13.60;99.90
41592;DHT22;28026;48.562;14.440;2023-05-16T11:12:44;13.60;99.90
41592;DHT22;28026;48.562;14.440;2023-05-16T11:15:25;13.60;99.90
41592;DHT22;28026;48.562;14.440;2023-05-16T11:18:07;13.60;99.90
41592;DHT22;28026;48.562;14.440;2023-05-16T11:20:44;13.60;99.90
41592;DHT22;28026;48.562;14.440;2023-05-16T11:25:47;13.60;99.90
41592;DHT22;28026;48.562;14.440;2023-05-16T11:28:24;13.70;99.90
41592;DHT22;28026;48.562;14.440;2023-05-16T11:30:57;13.60;99.90
41592;DHT22;28026;48.562;14.440;2023-05-16T11:33:29;13.40;99.90
41592;DHT22;28026;48.562;14.440;2023-05-16T11:36:04;13.40;99.90
41592;DHT22;28026;48.562;14.440;2023-05-16T11:38:37;13.20;99.90
41592;DHT22;28026;48.562;14.440;2023-05-16T11:41:12;13.20;99.90
41592;DHT22;28026;48.562;14.440;2023-05-16T11:43:45;13.10;99.90
41592;DHT22;28026;48.562;14.440;2023-05-16T11:46:16;13.10;99.90
41592;DHT22;28026;48.562;14.440;2023-05-16T11:48:47;13.00;99.90
41592;DHT22;28026;48.562;14.440;2023-05-16T11:51:18;13.10;99.90
41592;DHT22;28026;48.562;14.440;2023-05-16T11:53:50;13.10;99.90
41592;DHT22;28026;48.562;14.440;2023-05-16T11:56:21;13.10;99.90
41592;DHT22;28026;48.562;14.440;2023-05-16T11:58:52;13.00;99.90
41592;DHT22;28026;48.562;14.440;2023-05-16T12:01:23;13.00;99.90
41592;DHT22;28026;48.562;14.440;2023-05-16T12:03:55;13.00;99.90
41592;DHT22;28026;48.562;14.440;2023-05-16T12:06:27;13.00;99.90
41592;DHT22;28026;48.562;14.440;2023-05-16T12:09:00;13.10;99.90
41592;DHT22;28026;48.562;14.440;2023-05-16T12:11:40;13.10;99.90
41592;DHT22;28026;48.562;14.440;2023-05-16T12:14:13;13.10;99.90
41592;DHT22;28026;48.562;14.440;2023-05-16T12:16:45;13.10;99.90
41592;DHT22;28026;48.562;14.440;2023-05-16T12:19:18;13.20;99.90
41592;DHT22;28026;48.562;14.440;2023-05-16T12:21:53;13.30;99.90
41592;DHT22;28026;48.562;14.440;2023-05-16T12:24:30;13.30;99.90
41592;DHT22;28026;48.562;14.440;2023-05-16T12:27:01;13.40;99.90
41592;DHT22;28026;48.562;14.440;2023-05-16T12:29:32;13.20;99.90
41592;DHT22;28026;48.562;14.440;2023-05-16T12:32:06;13.10;99.90
41592;DHT22;28026;48.562;14.440;2023-05-16T12:34:38;13.20;99.90
41592;DHT22;28026;48.562;14.440;2023-05-16T12:37:09;13.20;99.90
41592;DHT22;28026;48.562;14.440;2023-05-16T12:39:40;13.10;99.90
41592;DHT22;28026;48.562;14.440;2023-05-16T12:42:10;13.20;99.90
41592;DHT22;28026;48.562;14.440;2023-05-16T12:44:43;13.10;99.90
41592;DHT22;28026;48.562;14.440;2023-05-16T12:47:15;13.00;99.90
41592;DHT22;28026;48.562;14.440;2023-05-16T12:49:46;13.10;99.90
41592;DHT22;28026;48.562;14.440;2023-05-16T12:52:20;12.80;99.90
41592;DHT22;28026;48.562;14.440;2023-05-16T12:54:51;12.80;99.90
41592;DHT22;28026;48.562;14.440;2023-05-16T12:57:22;12.80;99.90
41592;DHT22;28026;48.562;14.440;2023-05-16T12:59:52;12.70;99.90
41592;DHT22;28026;48.562;14.440;2023-05-16T13:02:23;12.50;99.90
41592;DHT22;28026;48.562;14.440;2023-05-16T13:04:54;11.90;99.90
41592;DHT22;28026;48.562;14.440;2023-05-16T13:07:25;11.80;99.90
41592;DHT22;28026;48.562;14.440;2023-05-16T13:09:55;11.80;99.90
41592;DHT22;28026;48.562;14.440;2023-05-16T13:12:26;11.80;99.90
41592;DHT22;28026;48.562;14.440;2023-05-16T13:14:57;11.70;99.90
41592;DHT22;28026;48.562;14.440;2023-05-16T13:17:28;11.60;99.90
41592;DHT22;28026;48.562;14.440;2023-05-16T13:19:59;11.80;99.90
41592;DHT22;28026;48.562;14.440;2023-05-16T13:22:32;11.80;99.90
41592;DHT22;28026;48.562;14.440;2023-05-16T13:25:03;11.80;99.90
41592;DHT22;28026;48.562;14.440;2023-05-16T13:27:35;11.90;99.90
41592;DHT22;28026;48.562;14.440;2023-05-16T13:30:06;11.90;99.90
41592;DHT22;28026;48.562;14.440;2023-05-16T13:32:38;11.90;99.90
41592;DHT22;28026;48.562;14.440;2023-05-16T13:35:08;12.00;99.90
41592;DHT22;28026;48.562;14.440;2023-05-16T13:37:39;12.10;99.90
41592;DHT22;28026;48.562;14.440;2023-05-16T13:40:10;11.90;99.90
41592;DHT22;28026;48.562;14.440;2023-05-16T13:42:41;11.90;99.90
41592;DHT22;28026;48.562;14.440;2023-05-16T13:45:12;11.90;99.90
41592;DHT22;28026;48.562;14.440;2023-05-16T13:47:42;12.00;99.90
41592;DHT22;28026;48.562;14.440;2023-05-16T13:50:13;12.00;99.90
41592;DHT22;28026;48.562;14.440;2023-05-16T13:52:44;12.00;99.90
41592;DHT22;28026;48.562;14.440;2023-05-16T13:55:16;12.30;99.90
41592;DHT22;28026;48.562;14.440;2023-05-16T13:57:47;12.20;99.90
41592;DHT22;28026;48.562;14.440;2023-05-16T14:00:19;12.10;99.90
41592;DHT22;28026;48.562;14.440;2023-05-16T14:02:49;12.10;99.90
41592;DHT22;28026;48.562;14.440;2023-05-16T14:05:20;12.20;99.90
41592;DHT22;28026;48.562;14.440;2023-05-16T14:07:52;12.20;99.90
41592;DHT22;28026;48.562;14.440;2023-05-16T14:10:22;12.30;99.90
41592;DHT22;28026;48.562;14.440;2023-05-16T14:12:53;12.40;99.90
41592;DHT22;28026;48.562;14.440;2023-05-16T14:15:24;12.40;99.90
41592;DHT22;28026;48.562;14.440;2023-05-16T14:17:55;12.40;99.90
41592;DHT22;28026;48.562;14.440;2023-05-16T14:20:26;12.50;99.90
41592;DHT22;28026;48.562;14.440;2023-05-16T14:22:57;12.60;99.90
41592;DHT22;28026;48.562;14.440;2023-05-16T14:25:27;12.70;99.90
41592;DHT22;28026;48.562;14.440;2023-05-16T14:27:59;12.50;99.90
41592;DHT22;28026;48.562;14.440;2023-05-16T14:30:29;12.10;99.90
41592;DHT22;28026;48.562;14.440;2023-05-16T14:33:00;11.90;99.90
41592;DHT22;28026;48.562;14.440;2023-05-16T14:35:32;11.50;99.90
41592;DHT22;28026;48.562;14.440;2023-05-16T14:38:03;11.40;99.90
41592;DHT22;28026;48.562;14.440;2023-05-16T14:40:34;11.20;99.90
41592;DHT22;28026;48.562;14.440;2023-05-16T14:43:05;11.10;99.90
41592;DHT22;28026;48.562;14.440;2023-05-16T14:45:36;11.20;99.90
41592;DHT22;28026;48.562;14.440;2023-05-16T14:48:08;11.30;99.90
41592;DHT22;28026;48.562;14.440;2023-05-16T14:50:39;11.30;99.90
41592;DHT22;28026;48.562;14.440;2023-05-16T14:53:10;11.30;99.90
41592;DHT22;28026;48.562;14.440;2023-05-16T14:55:41;11.20;99.90
41592;DHT22;28026;48.562;14.440;2023-05-16T14:58:11;11.20;99.90
41592;DHT22;28026;48.562;14.440;2023-05-16T15:00:42;11.30;99.90
41592;DHT22;28026;48.562;14.440;2023-05-16T15:03:14;11.20;99.90
41592;DHT22;28026;48.562;14.440;2023-05-16T15:05:47;11.10;99.90
41592;DHT22;28026;48.562;14.440;2023-05-16T15:08:17;11.10;99.90
41592;DHT22;28026;48.562;14.440;2023-05-16T15:10:48;11.30;99.90
41592;DHT22;28026;48.562;14.440;2023-05-16T15:13:19;11.50;99.90
41592;DHT22;28026;48.562;14.440;2023-05-16T15:15:50;11.60;99.90
41592;DHT22;28026;48.562;14.440;2023-05-16T15:18:21;11.60;99.90
41592;DHT22;28026;48.562;14.440;2023-05-16T15:20:51;11.70;99.90
41592;DHT22;28026;48.562;14.440;2023-05-16T15:23:22;11.70;99.90
41592;DHT22;28026;48.562;14.440;2023-05-16T15:25:53;11.80;99.90
41592;DHT22;28026;48.562;14.440;2023-05-16T15:28:24;11.80;99.90
41592;DHT22;28026;48.562;14.440;2023-05-16T15:30:55;11.70;99.90
41592;DHT22;28026;48.562;14.440;2023-05-16T15:33:26;11.70;99.90
41592;DHT22;28026;48.562;14.440;2023-05-16T15:35:56;11.80;99.90
41592;DHT22;28026;48.562;14.440;2023-05-16T15:38:27;11.80;99.90
41592;DHT22;28026;48.562;14.440;2023-05-16T15:40:58;11.80;99.90
41592;DHT22;28026;48.562;14.440;2023-05-16T15:43:29;11.90;99.90
41592;DHT22;28026;48.562;14.440;2023-05-16T15:46:00;11.70;99.90
41592;DHT22;28026;48.562;14.440;2023-05-16T15:48:30;11.70;99.90
41592;DHT22;28026;48.562;14.440;2023-05-16T15:51:01;11.50;99.90
41592;DHT22;28026;48.562;14.440;2023-05-16T15:53:32;11.40;99.90
41592;DHT22;28026;48.562;14.440;2023-05-16T15:56:04;11.50;99.90
41592;DHT22;28026;48.562;14.440;2023-05-16T15:58:35;11.40;99.90
41592;DHT22;28026;48.562;14.440;2023-05-16T16:01:06;11.20;99.90
41592;DHT22;28026;48.562;14.440;2023-05-16T16:03:37;11.30;99.90
41592;DHT22;28026;48.562;14.440;2023-05-16T16:06:07;11.40;99.90
41592;DHT22;28026;48.562;14.440;2023-05-16T16:08:38;11.60;99.90